Time;durP1;ratioP1;P1;durP2;ratioP2;P2;SDS_P1;SDS_P2;PMS_P1;PMS_P2;Temp;Humidity;BMP_temperature;BMP_pressure;BME280_temperature;BME280_humidity;BME280_pressure;Samples;Min_cycle;Max_cycle;Signal;HPM_P1;HPM_P2
2023/02/24 00:01:23;;;;;;;;;;;10.00;72.50;;;;;;5001325;28;92199;-39
2023/02/24 00:03:56;;;;;;;;;;;10.00;72.50;;;;;;5001440;28;92896;-38
2023/02/24 00:06:37;;;;;;;;;;;10.00;72.60;;;;;;5003949;28;93594;-39
2023/02/24 00:09:07;;;;;;;;;;;10.00;72.80;;;;;;5001379;28;93248;-39
2023/02/24 00:11:33;;;;;;;;;;;10.00;72.80;;;;;;5000892;28;94854;-38
2023/02/24 00:13:59;;;;;;;;;;;10.00;72.70;;;;;;5000601;28;93095;-39
2023/02/24 00:16:24;;;;;;;;;;;10.00;72.70;;;;;;5000792;28;94584;-39
2023/02/24 00:18:50;;;;;;;;;;;9.90;72.80;;;;;;5000740;28;94741;-38
2023/02/24 00:21:15;;;;;;;;;;;10.00;72.80;;;;;;5001107;28;92164;-39
2023/02/24 00:23:42;;;;;;;;;;;9.90;72.70;;;;;;5000828;28;93740;-38
2023/02/24 00:26:09;;;;;;;;;;;9.90;72.80;;;;;;5000544;28;94558;-38
2023/02/24 00:28:36;;;;;;;;;;;10.00;72.90;;;;;;5004440;28;92184;-38
2023/02/24 00:31:13;;;;;;;;;;;10.00;72.70;;;;;;5000907;28;93471;-39
2023/02/24 00:33:39;;;;;;;;;;;10.00;72.80;;;;;;5001089;28;92087;-39
2023/02/24 00:36:05;;;;;;;;;;;10.00;72.70;;;;;;5001066;28;92587;-39
2023/02/24 00:38:34;;;;;;;;;;;10.00;72.60;;;;;;4999477;28;95696;-38
2023/02/24 00:41:32;;;;;;;;;;;9.90;72.80;;;;;;5000828;28;92076;-39
2023/02/24 00:44:06;;;;;;;;;;;9.90;72.80;;;;;;4977469;28;94098;-38
2023/02/24 00:46:37;;;;;;;;;;;10.00;72.70;;;;;;4999892;28;94480;-39
2023/02/24 00:49:04;;;;;;;;;;;9.90;72.90;;;;;;5000564;28;92198;-38
2023/02/24 00:51:32;;;;;;;;;;;9.90;72.90;;;;;;5003296;28;93667;-38
2023/02/24 00:53:58;;;;;;;;;;;9.90;72.80;;;;;;5000595;28;92592;-39
2023/02/24 00:56:25;;;;;;;;;;;9.90;72.80;;;;;;5001157;28;93664;-36
2023/02/24 00:58:52;;;;;;;;;;;9.90;72.80;;;;;;4999932;28;94849;-38
2023/02/24 01:01:19;;;;;;;;;;;9.90;72.70;;;;;;5000370;28;92161;-38
2023/02/24 01:03:45;;;;;;;;;;;9.90;72.80;;;;;;4999940;28;92950;-39
2023/02/24 01:06:11;;;;;;;;;;;9.90;72.70;;;;;;4999329;28;94909;-39
2023/02/24 01:08:39;;;;;;;;;;;9.90;73.00;;;;;;5000287;28;92147;-38
2023/02/24 01:13:49;;;;;;;;;;;9.80;73.00;;;;;;5002934;28;92323;-38
2023/02/24 01:16:17;;;;;;;;;;;9.80;72.90;;;;;;5000044;28;93935;-38
2023/02/24 01:18:49;;;;;;;;;;;9.90;72.90;;;;;;4999819;28;94040;-39
2023/02/24 01:21:16;;;;;;;;;;;9.80;72.70;;;;;;5000653;28;91406;-39
2023/02/24 01:23:42;;;;;;;;;;;9.80;72.90;;;;;;5000047;28;93191;-39
2023/02/24 01:26:08;;;;;;;;;;;9.80;72.90;;;;;;4999644;28;94531;-38
2023/02/24 01:28:34;;;;;;;;;;;9.80;72.90;;;;;;4999221;28;93699;-39
2023/02/24 01:31:01;;;;;;;;;;;9.70;73.20;;;;;;4999985;28;94649;-39
2023/02/24 01:33:26;;;;;;;;;;;9.80;73.10;;;;;;4999654;28;93021;-38
2023/02/24 01:35:54;;;;;;;;;;;9.80;73.00;;;;;;5003194;28;92782;-39
2023/02/24 01:38:21;;;;;;;;;;;9.80;72.80;;;;;;4999420;28;93854;-38
2023/02/24 01:40:56;;;;;;;;;;;9.80;72.90;;;;;;4999890;28;92203;-38
2023/02/24 01:43:22;;;;;;;;;;;9.80;73.10;;;;;;5000016;28;93700;-38
2023/02/24 01:45:50;;;;;;;;;;;9.70;73.00;;;;;;5000037;28;93571;-38
2023/02/24 01:48:16;;;;;;;;;;;9.70;73.10;;;;;;4999854;28;92025;-39
2023/02/24 01:50:44;;;;;;;;;;;9.70;73.10;;;;;;4999639;28;93788;-38
2023/02/24 01:53:10;;;;;;;;;;;9.70;73.00;;;;;;4998536;28;95296;-38
2023/02/24 01:55:49;;;;;;;;;;;9.80;73.10;;;;;;4999705;28;92171;-39
2023/02/24 01:58:21;;;;;;;;;;;9.70;73.00;;;;;;5001667;28;93969;-38
2023/02/24 02:00:47;;;;;;;;;;;9.70;72.90;;;;;;4999637;28;92168;-39
2023/02/24 02:03:22;;;;;;;;;;;9.70;72.90;;;;;;4999595;28;93745;-38
2023/02/24 02:05:50;;;;;;;;;;;9.70;73.10;;;;;;4998183;28;94789;-39
2023/02/24 02:08:17;;;;;;;;;;;9.70;72.90;;;;;;4999518;28;92246;-38
2023/02/24 02:10:45;;;;;;;;;;;9.70;73.00;;;;;;4999897;28;93603;-39
2023/02/24 02:13:13;;;;;;;;;;;9.80;73.00;;;;;;4998988;28;93402;-39
2023/02/24 02:15:46;;;;;;;;;;;9.70;72.90;;;;;;4999571;28;92198;-39
2023/02/24 02:18:26;;;;;;;;;;;9.70;73.20;;;;;;5001203;28;93804;-39
2023/02/24 02:21:04;;;;;;;;;;;9.70;73.10;;;;;;4999451;28;92121;-38
2023/02/24 02:23:33;;;;;;;;;;;9.70;73.10;;;;;;4999560;28;93884;-39
2023/02/24 02:26:04;;;;;;;;;;;9.70;73.00;;;;;;4998974;28;93204;-38
2023/02/24 02:28:39;;;;;;;;;;;9.70;73.10;;;;;;4999226;28;92123;-39
2023/02/24 02:31:14;;;;;;;;;;;9.70;73.00;;;;;;4999130;28;93699;-39
2023/02/24 02:33:43;;;;;;;;;;;9.60;73.70;;;;;;4998615;28;94566;-38
2023/02/24 02:36:21;;;;;;;;;;;9.60;73.10;;;;;;4999499;28;91399;-39
2023/02/24 02:38:52;;;;;;;;;;;9.70;73.10;;;;;;4999237;28;93000;-39
2023/02/24 02:41:17;;;;;;;;;;;9.60;73.10;;;;;;5001594;28;94209;-39
2023/02/24 02:43:51;;;;;;;;;;;9.60;73.10;;;;;;4998270;28;93618;-39
2023/02/24 02:46:33;;;;;;;;;;;9.60;73.30;;;;;;4998678;28;94728;-38
2023/02/24 02:49:02;;;;;;;;;;;9.60;73.20;;;;;;4998982;28;92102;-39
2023/02/24 02:51:32;;;;;;;;;;;9.60;73.10;;;;;;4998938;28;94096;-38
2023/02/24 02:54:16;;;;;;;;;;;9.60;73.30;;;;;;4998423;28;93727;-39
2023/02/24 02:57:04;;;;;;;;;;;9.60;73.30;;;;;;4998785;28;92233;-38
2023/02/24 02:59:31;;;;;;;;;;;9.60;73.30;;;;;;4999280;28;92362;-39
2023/02/24 03:02:10;;;;;;;;;;;9.60;73.30;;;;;;4998899;28;93991;-39
2023/02/24 03:04:39;;;;;;;;;;;9.60;73.30;;;;;;5002132;28;92203;-38
2023/02/24 03:07:05;;;;;;;;;;;9.50;73.30;;;;;;4997735;28;94759;-38
2023/02/24 03:09:34;;;;;;;;;;;9.60;73.20;;;;;;4998395;28;93059;-38
2023/02/24 03:12:03;;;;;;;;;;;9.60;73.30;;;;;;5002304;28;94967;-38
2023/02/24 03:14:30;;;;;;;;;;;9.50;73.20;;;;;;5001730;28;94494;-39
2023/02/24 03:16:57;;;;;;;;;;;9.50;73.30;;;;;;5001923;28;92102;-38
2023/02/24 03:19:29;;;;;;;;;;;9.60;73.30;;;;;;5001784;28;93853;-39
2023/02/24 03:22:00;;;;;;;;;;;9.50;73.30;;;;;;5001580;28;94364;-39
2023/02/24 03:24:26;;;;;;;;;;;9.60;73.30;;;;;;5002059;28;92572;-38
2023/02/24 03:26:58;;;;;;;;;;;9.50;73.30;;;;;;5005038;28;93937;-39
2023/02/24 03:29:32;;;;;;;;;;;9.50;73.30;;;;;;5002364;28;92078;-39
2023/02/24 03:31:58;;;;;;;;;;;9.50;73.30;;;;;;5001724;28;94374;-38
2023/02/24 03:34:26;;;;;;;;;;;9.40;73.40;;;;;;5000473;28;95364;-39
2023/02/24 03:36:53;;;;;;;;;;;9.40;73.40;;;;;;5002068;28;92032;-38
2023/02/24 03:39:19;;;;;;;;;;;9.40;73.20;;;;;;5001689;28;93914;-39
2023/02/24 03:41:56;;;;;;;;;;;9.50;73.40;;;;;;5001112;28;94702;-39
2023/02/24 03:44:23;;;;;;;;;;;9.50;73.40;;;;;;5001517;28;92354;-38
2023/02/24 03:46:49;;;;;;;;;;;9.40;73.30;;;;;;5001694;28;93965;-38
2023/02/24 03:49:15;;;;;;;;;;;9.40;73.40;;;;;;5004073;28;94546;-39
2023/02/24 03:51:55;;;;;;;;;;;9.40;73.40;;;;;;5002376;28;93768;-39
2023/02/24 03:54:30;;;;;;;;;;;9.40;73.30;;;;;;5001077;28;94479;-38
2023/02/24 03:57:14;;;;;;;;;;;9.40;73.30;;;;;;5001423;28;92149;-39
2023/02/24 03:59:45;;;;;;;;;;;9.40;73.30;;;;;;5000932;28;94090;-38
2023/02/24 04:02:20;;;;;;;;;;;9.40;73.50;;;;;;5000883;28;94551;-39
2023/02/24 04:04:48;;;;;;;;;;;9.30;73.50;;;;;;5001259;28;92130;-39
2023/02/24 04:07:22;;;;;;;;;;;9.40;73.70;;;;;;5001272;28;93234;-39
2023/02/24 04:09:55;;;;;;;;;;;9.40;73.50;;;;;;5000887;28;94523;-39
2023/02/24 04:12:27;;;;;;;;;;;9.40;73.60;;;;;;5004234;28;92034;-38
2023/02/24 04:14:59;;;;;;;;;;;9.40;73.40;;;;;;5000821;28;94464;-38
2023/02/24 04:17:30;;;;;;;;;;;9.40;73.40;;;;;;5001426;28;91427;-39
2023/02/24 04:19:59;;;;;;;;;;;9.40;73.60;;;;;;5001062;28;93236;-38
2023/02/24 04:22:25;;;;;;;;;;;9.40;73.40;;;;;;5000298;28;93962;-38
2023/02/24 04:24:56;;;;;;;;;;;9.30;73.50;;;;;;5000389;28;93064;-38
2023/02/24 04:27:22;;;;;;;;;;;9.30;73.40;;;;;;5001193;28;94976;-39
2023/02/24 04:29:53;;;;;;;;;;;9.30;73.50;;;;;;5000688;28;93068;-39
2023/02/24 04:32:21;;;;;;;;;;;9.30;73.50;;;;;;5004287;28;91927;-39
2023/02/24 04:34:47;;;;;;;;;;;9.30;73.50;;;;;;5000229;28;95034;-39
2023/02/24 04:37:13;;;;;;;;;;;9.40;73.50;;;;;;5000908;28;92086;-38
2023/02/24 04:39:38;;;;;;;;;;;9.30;73.40;;;;;;5000917;28;94306;-38
2023/02/24 04:42:04;;;;;;;;;;;9.30;73.40;;;;;;5000862;28;93543;-39
2023/02/24 04:44:31;;;;;;;;;;;9.30;73.70;;;;;;5000756;28;92140;-39
2023/02/24 04:46:57;;;;;;;;;;;9.30;73.60;;;;;;5000889;28;93780;-39
2023/02/24 04:49:23;;;;;;;;;;;9.30;73.60;;;;;;4999395;28;95425;-39
2023/02/24 04:51:50;;;;;;;;;;;9.20;73.60;;;;;;5000599;28;92116;-38
2023/02/24 04:54:16;;;;;;;;;;;9.30;73.50;;;;;;5003059;28;93972;-38
2023/02/24 04:56:43;;;;;;;;;;;9.30;73.60;;;;;;5000759;28;92461;-39
2023/02/24 04:59:09;;;;;;;;;;;9.30;73.60;;;;;;5000592;28;94113;-39
2023/02/24 05:01:38;;;;;;;;;;;9.30;73.60;;;;;;5000056;28;94521;-39
2023/02/24 05:04:04;;;;;;;;;;;9.20;73.50;;;;;;5000702;28;92253;-39
2023/02/24 05:06:30;;;;;;;;;;;9.20;73.70;;;;;;5000475;28;94169;-38
2023/02/24 05:08:56;;;;;;;;;;;9.20;73.60;;;;;;4999793;28;94417;-38
2023/02/24 05:11:21;;;;;;;;;;;9.20;73.60;;;;;;5000438;28;92205;-39
2023/02/24 05:13:47;;;;;;;;;;;9.30;73.60;;;;;;4999599;28;94014;-38
2023/02/24 05:16:14;;;;;;;;;;;9.20;73.60;;;;;;5002724;28;94440;-39
2023/02/24 05:18:39;;;;;;;;;;;9.20;73.70;;;;;;4999928;28;94138;-39
2023/02/24 05:23:54;;;;;;;;;;;9.20;73.60;;;;;;4998859;28;92102;-38
2023/02/24 05:26:22;;;;;;;;;;;9.20;73.70;;;;;;5000078;28;94278;-39
2023/02/24 05:28:51;;;;;;;;;;;9.20;73.60;;;;;;4999451;28;94735;-38
2023/02/24 05:31:18;;;;;;;;;;;9.20;73.70;;;;;;5000560;28;91414;-39
2023/02/24 05:33:45;;;;;;;;;;;9.20;73.70;;;;;;4998967;28;93093;-39
2023/02/24 05:36:14;;;;;;;;;;;9.20;73.70;;;;;;4999552;28;94349;-39
2023/02/24 05:38:40;;;;;;;;;;;9.20;73.70;;;;;;5002599;28;93000;-38
2023/02/24 05:41:06;;;;;;;;;;;9.20;73.70;;;;;;4999220;28;94482;-38
2023/02/24 05:43:34;;;;;;;;;;;9.20;73.60;;;;;;5000008;28;92212;-39
2023/02/24 05:46:02;;;;;;;;;;;9.20;73.50;;;;;;4999774;28;93605;-38
2023/02/24 05:48:27;;;;;;;;;;;9.20;73.60;;;;;;4999224;28;94318;-38
2023/02/24 05:50:53;;;;;;;;;;;9.20;73.70;;;;;;4999687;28;92197;-39
2023/02/24 05:53:19;;;;;;;;;;;9.20;73.50;;;;;;4999767;28;94110;-38
2023/02/24 05:55:45;;;;;;;;;;;9.20;73.60;;;;;;4999625;28;93806;-39
2023/02/24 05:58:10;;;;;;;;;;;9.20;73.70;;;;;;4999394;28;92172;-38
2023/02/24 06:00:38;;;;;;;;;;;9.20;73.70;;;;;;5002316;28;93870;-39
2023/02/24 06:03:16;;;;;;;;;;;9.10;73.60;;;;;;4998944;28;93079;-39
2023/02/24 06:05:53;;;;;;;;;;;9.10;73.60;;;;;;4999078;28;94617;-38
2023/02/24 06:08:19;;;;;;;;;;;9.10;73.70;;;;;;4999234;28;92697;-39
2023/02/24 06:10:46;;;;;;;;;;;9.10;73.60;;;;;;4999390;28;92243;-38
2023/02/24 06:13:11;;;;;;;;;;;9.10;73.70;;;;;;4999745;28;92305;-39
2023/02/24 06:15:37;;;;;;;;;;;9.10;73.60;;;;;;4998925;28;94752;-39
2023/02/24 06:18:03;;;;;;;;;;;9.10;73.60;;;;;;4999163;28;92124;-39
2023/02/24 06:20:31;;;;;;;;;;;9.10;73.60;;;;;;5002491;28;91781;-38
2023/02/24 06:22:57;;;;;;;;;;;9.10;73.70;;;;;;4999309;28;92007;-38
2023/02/24 06:25:24;;;;;;;;;;;9.10;73.60;;;;;;4998986;28;93920;-39
2023/02/24 06:27:52;;;;;;;;;;;9.10;73.80;;;;;;4997996;28;95868;-39
2023/02/24 06:30:17;;;;;;;;;;;9.10;73.70;;;;;;4999011;28;92031;-39
2023/02/24 06:32:43;;;;;;;;;;;9.10;73.70;;;;;;4999170;28;94487;-39
2023/02/24 06:35:11;;;;;;;;;;;9.10;73.80;;;;;;4998766;28;94371;-38
2023/02/24 06:37:38;;;;;;;;;;;9.00;73.80;;;;;;4999189;28;92144;-39
2023/02/24 06:40:14;;;;;;;;;;;9.10;73.90;;;;;;4998716;28;93781;-39
2023/02/24 06:42:46;;;;;;;;;;;9.10;73.80;;;;;;5001772;28;94421;-39
2023/02/24 06:45:13;;;;;;;;;;;9.10;73.80;;;;;;4999003;28;93713;-38
2023/02/24 06:47:39;;;;;;;;;;;9.10;73.70;;;;;;4998635;28;94716;-38
2023/02/24 06:50:05;;;;;;;;;;;9.10;73.70;;;;;;4998962;28;92023;-39
2023/02/24 06:52:31;;;;;;;;;;;9.10;73.80;;;;;;4998433;28;93657;-39
2023/02/24 06:54:57;;;;;;;;;;;9.10;73.80;;;;;;4998375;28;94432;-38
2023/02/24 06:57:22;;;;;;;;;;;9.00;73.70;;;;;;4998678;28;92191;-39
2023/02/24 06:59:48;;;;;;;;;;;9.00;73.80;;;;;;4998779;28;93779;-38
2023/02/24 07:02:15;;;;;;;;;;;9.00;73.80;;;;;;4998293;28;93831;-38
2023/02/24 07:04:42;;;;;;;;;;;9.00;73.80;;;;;;5001907;28;92130;-39
2023/02/24 07:07:09;;;;;;;;;;;9.00;73.80;;;;;;4997635;28;94667;-38
2023/02/24 07:09:35;;;;;;;;;;;9.00;73.80;;;;;;4999030;28;91482;-38
2023/02/24 07:12:01;;;;;;;;;;;9.00;73.80;;;;;;4998822;28;93259;-39
2023/02/24 07:14:29;;;;;;;;;;;9.00;73.80;;;;;;4997913;28;94515;-38
2023/02/24 07:16:56;;;;;;;;;;;9.00;73.80;;;;;;4997811;28;93102;-38
2023/02/24 07:19:31;;;;;;;;;;;9.00;73.90;;;;;;4998585;28;93292;-39
2023/02/24 07:22:00;;;;;;;;;;;9.00;73.80;;;;;;4997858;28;94532;-39
2023/02/24 07:24:31;;;;;;;;;;;9.00;73.90;;;;;;4998460;28;92152;-39
2023/02/24 07:27:20;;;;;;;;;;;9.00;73.90;;;;;;5001214;28;93707;-39
2023/02/24 07:29:48;;;;;;;;;;;9.00;73.80;;;;;;4998562;28;91975;-38
2023/02/24 07:32:14;;;;;;;;;;;9.00;74.00;;;;;;4998403;28;93987;-38
2023/02/24 07:34:39;;;;;;;;;;;9.00;74.40;;;;;;4998390;28;93948;-38
2023/02/24 07:37:07;;;;;;;;;;;9.00;73.80;;;;;;4998442;28;93479;-39
2023/02/24 07:39:35;;;;;;;;;;;9.00;73.80;;;;;;4998437;28;92454;-38
2023/02/24 07:42:01;;;;;;;;;;;9.00;73.90;;;;;;4997096;28;95388;-38
2023/02/24 07:44:28;;;;;;;;;;;9.00;74.50;;;;;;4998019;28;92157;-39
2023/02/24 07:46:55;;;;;;;;;;;9.00;73.90;;;;;;4998151;28;93832;-39
2023/02/24 07:49:24;;;;;;;;;;;8.90;73.90;;;;;;5001021;28;93187;-39
2023/02/24 07:51:51;;;;;;;;;;;9.00;74.00;;;;;;4998271;28;94182;-39
2023/02/24 07:54:20;;;;;;;;;;;8.90;74.00;;;;;;4997520;28;94975;-39
2023/02/24 07:56:54;;;;;;;;;;;8.90;74.00;;;;;;5000682;28;92156;-38
2023/02/24 07:59:21;;;;;;;;;;;8.90;74.00;;;;;;5002013;28;93745;-38
2023/02/24 08:01:49;;;;;;;;;;;8.90;74.00;;;;;;5000952;28;94452;-38
2023/02/24 08:04:16;;;;;;;;;;;8.90;74.00;;;;;;5001180;28;92171;-38
2023/02/24 08:06:44;;;;;;;;;;;8.90;74.10;;;;;;5000532;28;93067;-39
2023/02/24 08:09:18;;;;;;;;;;;8.90;74.10;;;;;;5000802;28;92910;-39
2023/02/24 08:11:51;;;;;;;;;;;8.90;74.20;;;;;;5004473;28;92062;-39
2023/02/24 08:14:18;;;;;;;;;;;8.90;74.70;;;;;;5001088;28;92643;-38
2023/02/24 08:16:44;;;;;;;;;;;8.80;74.20;;;;;;5001639;28;92162;-38
2023/02/24 08:19:19;;;;;;;;;;;8.80;74.20;;;;;;5001053;28;93774;-38
2023/02/24 08:21:49;;;;;;;;;;;8.80;74.40;;;;;;5000964;28;94524;-38
2023/02/24 08:24:18;;;;;;;;;;;8.90;74.30;;;;;;5001569;28;91380;-38
2023/02/24 08:27:02;;;;;;;;;;;8.90;74.30;;;;;;5000936;28;93234;-38
2023/02/24 08:29:30;;;;;;;;;;;8.90;74.30;;;;;;5000539;28;94346;-39
2023/02/24 08:31:56;;;;;;;;;;;8.90;74.30;;;;;;5003514;28;93112;-38
2023/02/24 08:34:26;;;;;;;;;;;8.90;74.20;;;;;;5000646;28;94529;-38
2023/02/24 08:36:54;;;;;;;;;;;8.90;74.20;;;;;;5001031;28;92145;-38
2023/02/24 08:39:21;;;;;;;;;;;8.90;74.30;;;;;;5000601;28;93770;-39
2023/02/24 08:41:50;;;;;;;;;;;8.90;74.30;;;;;;5000526;28;94421;-39
2023/02/24 08:44:19;;;;;;;;;;;8.90;74.20;;;;;;5000663;28;92017;-38
2023/02/24 08:46:48;;;;;;;;;;;8.90;74.20;;;;;;5000878;28;93880;-39
2023/02/24 08:49:15;;;;;;;;;;;8.90;74.30;;;;;;5000715;28;92473;-38
2023/02/24 08:51:45;;;;;;;;;;;8.90;74.30;;;;;;5000683;28;92557;-38
2023/02/24 08:54:14;;;;;;;;;;;8.90;74.30;;;;;;5003200;28;93916;-39
2023/02/24 08:56:42;;;;;;;;;;;8.90;74.30;;;;;;4999777;28;93089;-38
2023/02/24 08:59:14;;;;;;;;;;;8.90;74.20;;;;;;5000558;28;94869;-39
2023/02/24 09:01:51;;;;;;;;;;;8.90;74.30;;;;;;4999976;28;94516;-38
2023/02/24 09:04:18;;;;;;;;;;;8.90;74.40;;;;;;5000229;28;92150;-39
2023/02/24 09:06:45;;;;;;;;;;;8.90;74.50;;;;;;4999716;28;94120;-39
2023/02/24 09:09:25;;;;;;;;;;;9.00;74.40;;;;;;4999928;28;94506;-37
2023/02/24 09:11:54;;;;;;;;;;;9.00;74.40;;;;;;5000524;28;92137;-37
2023/02/24 09:14:21;;;;;;;;;;;9.00;74.40;;;;;;5000913;28;92388;-38
2023/02/24 09:17:04;;;;;;;;;;;9.00;74.50;;;;;;5003108;28;92989;-37
2023/02/24 09:22:31;;;;;;;;;;;9.00;74.50;;;;;;4997964;28;94094;-38
2023/02/24 09:25:16;;;;;;;;;;;9.00;74.50;;;;;;5000094;28;92142;-37
2023/02/24 09:27:54;;;;;;;;;;;9.00;74.50;;;;;;5000204;28;93978;-37
2023/02/24 09:30:36;;;;;;;;;;;9.00;74.60;;;;;;4999904;28;94617;-38
2023/02/24 09:33:06;;;;;;;;;;;9.00;74.60;;;;;;5000084;28;91997;-37
2023/02/24 09:35:35;;;;;;;;;;;9.00;74.70;;;;;;5000109;28;92313;-38
2023/02/24 09:38:04;;;;;;;;;;;9.00;74.70;;;;;;4999467;28;94305;-37
2023/02/24 09:40:47;;;;;;;;;;;9.00;74.80;;;;;;5003466;28;91404;-37
2023/02/24 09:43:23;;;;;;;;;;;9.00;74.80;;;;;;4999535;28;94631;-37
2023/02/24 09:45:52;;;;;;;;;;;9.00;74.70;;;;;;4999999;28;92048;-38
2023/02/24 09:48:25;;;;;;;;;;;9.00;74.80;;;;;;4998931;28;93879;-38
2023/02/24 09:50:59;;;;;;;;;;;9.00;74.70;;;;;;4999379;28;92229;-37
2023/02/24 09:53:28;;;;;;;;;;;9.00;74.80;;;;;;4999828;28;92006;-38
2023/02/24 09:55:59;;;;;;;;;;;9.00;74.90;;;;;;4999879;28;93720;-38
2023/02/24 09:58:36;;;;;;;;;;;9.00;74.80;;;;;;4999247;28;94278;-38
2023/02/24 10:01:22;;;;;;;;;;;9.00;74.90;;;;;;4999675;28;92024;-37
2023/02/24 10:03:47;;;;;;;;;;;9.00;74.80;;;;;;5002091;28;94227;-37
2023/02/24 10:06:19;;;;;;;;;;;9.10;74.80;;;;;;4999212;28;91498;-38
2023/02/24 10:08:53;;;;;;;;;;;9.00;74.90;;;;;;4999493;28;93210;-37
2023/02/24 10:11:31;;;;;;;;;;;9.00;74.90;;;;;;4998811;28;94517;-37
2023/02/24 10:13:59;;;;;;;;;;;9.00;74.80;;;;;;4998878;28;92972;-38
2023/02/24 10:16:40;;;;;;;;;;;9.00;75.00;;;;;;4999422;28;95112;-38
2023/02/24 10:19:25;;;;;;;;;;;9.00;74.90;;;;;;4998109;28;95021;-37
2023/02/24 10:21:59;;;;;;;;;;;9.00;74.90;;;;;;4999108;28;92119;-37
2023/02/24 10:24:33;;;;;;;;;;;9.00;74.90;;;;;;4999541;28;94318;-38
2023/02/24 10:27:18;;;;;;;;;;;9.10;74.90;;;;;;5001900;28;94667;-37
2023/02/24 10:30:04;;;;;;;;;;;9.10;74.90;;;;;;4999354;28;94126;-37
2023/02/24 10:32:35;;;;;;;;;;;9.10;74.90;;;;;;4999187;28;93809;-38
2023/02/24 10:35:01;;;;;;;;;;;9.10;74.90;;;;;;4999278;28;92167;-37
2023/02/24 10:37:27;;;;;;;;;;;9.10;74.80;;;;;;4999237;28;93508;-38
2023/02/24 10:40:08;;;;;;;;;;;9.10;74.80;;;;;;4998099;28;95213;-37
2023/02/24 10:42:36;;;;;;;;;;;9.10;75.50;;;;;;4998853;28;92202;-37
2023/02/24 10:45:16;;;;;;;;;;;9.10;74.80;;;;;;4999065;28;92707;-38
2023/02/24 10:47:44;;;;;;;;;;;9.10;74.80;;;;;;5001505;28;94597;-38
2023/02/24 10:50:22;;;;;;;;;;;9.10;74.70;;;;;;4998958;28;93776;-38
2023/02/24 10:58:36;;;;;;;;;;;9.20;74.90;;;;;;4997785;28;92253;-38
2023/02/24 11:01:12;;;;;;;;;;;9.20;74.90;;;;;;4998446;28;94884;-38
2023/02/24 11:04:00;;;;;;;;;;;9.20;75.20;;;;;;4998615;28;92483;-37
2023/02/24 11:09:18;;;;;;;;;;;9.20;74.90;;;;;;4997338;28;92993;-38
2023/02/24 11:17:26;;;;;;;;;;;9.30;75.10;;;;;;4997565;28;92064;-37
2023/02/24 11:20:09;;;;;;;;;;;9.30;75.00;;;;;;4998654;28;93838;-37
2023/02/24 11:22:38;;;;;;;;;;;9.30;75.10;;;;;;4998218;28;93164;-37
2023/02/24 11:25:15;;;;;;;;;;;9.30;75.30;;;;;;4998915;28;91403;-38
2023/02/24 11:27:41;;;;;;;;;;;9.30;75.40;;;;;;4998528;28;92179;-37
2023/02/24 11:30:19;;;;;;;;;;;9.30;75.30;;;;;;4998148;28;94960;-38
2023/02/24 11:32:44;;;;;;;;;;;9.30;75.30;;;;;;5001353;28;93031;-38
2023/02/24 11:35:16;;;;;;;;;;;9.30;75.50;;;;;;5004637;28;94387;-38
2023/02/24 11:37:50;;;;;;;;;;;9.30;75.50;;;;;;5001847;28;92063;-37
2023/02/24 11:40:27;;;;;;;;;;;9.30;75.40;;;;;;5001702;28;94062;-37
2023/02/24 11:43:02;;;;;;;;;;;9.30;75.40;;;;;;5001402;28;94443;-37
2023/02/24 11:45:30;;;;;;;;;;;9.30;75.60;;;;;;5001567;28;92129;-38
2023/02/24 11:48:02;;;;;;;;;;;9.30;75.60;;;;;;5001655;28;92618;-38
2023/02/24 11:50:42;;;;;;;;;;;9.30;75.50;;;;;;5001670;28;93847;-37
2023/02/24 11:53:26;;;;;;;;;;;9.30;75.60;;;;;;5001641;28;92148;-38
2023/02/24 11:55:58;;;;;;;;;;;9.30;75.70;;;;;;5001483;28;93456;-38
2023/02/24 11:58:34;;;;;;;;;;;9.30;75.70;;;;;;5003540;28;95547;-38
2023/02/24 12:01:09;;;;;;;;;;;9.30;75.60;;;;;;5001600;28;94773;-38
2023/02/24 12:03:50;;;;;;;;;;;9.30;75.70;;;;;;5000939;28;93458;-37
2023/02/24 12:06:19;;;;;;;;;;;9.30;75.90;;;;;;5000744;28;92657;-38
2023/02/24 12:08:49;;;;;;;;;;;9.40;76.00;;;;;;5001510;28;93890;-38
2023/02/24 12:11:41;;;;;;;;;;;9.30;75.90;;;;;;5000792;28;94216;-37
2023/02/24 12:14:22;;;;;;;;;;;9.30;76.00;;;;;;4983936;28;92082;-38
2023/02/24 12:16:52;;;;;;;;;;;9.40;76.00;;;;;;5001493;28;93972;-37
2023/02/24 12:19:21;;;;;;;;;;;9.40;76.20;;;;;;5000459;28;94542;-37
2023/02/24 12:21:49;;;;;;;;;;;9.30;76.10;;;;;;5004228;28;92007;-37
2023/02/24 12:24:15;;;;;;;;;;;9.40;76.10;;;;;;4999893;28;95997;-38
2023/02/24 12:26:47;;;;;;;;;;;9.30;76.10;;;;;;5000952;28;92938;-38
2023/02/24 12:29:14;;;;;;;;;;;9.40;76.20;;;;;;5000763;28;93915;-37
2023/02/24 12:31:44;;;;;;;;;;;9.30;76.20;;;;;;5000584;28;94591;-38
2023/02/24 12:34:18;;;;;;;;;;;9.30;76.20;;;;;;5001181;28;92131;-38
2023/02/24 12:36:52;;;;;;;;;;;9.40;76.40;;;;;;5001074;28;93622;-37
2023/02/24 12:39:20;;;;;;;;;;;9.40;76.30;;;;;;5000712;28;93013;-38
2023/02/24 12:41:45;;;;;;;;;;;9.40;76.30;;;;;;5000788;28;91280;-37
2023/02/24 12:44:46;;;;;;;;;;;9.40;76.40;;;;;;5003406;28;92964;-37
2023/02/24 12:47:14;;;;;;;;;;;9.40;76.50;;;;;;4958847;28;92204;-38
2023/02/24 12:49:41;;;;;;;;;;;9.40;76.40;;;;;;4991505;28;94054;-38
2023/02/24 12:52:26;;;;;;;;;;;9.50;77.00;;;;;;5000047;28;94558;-37
2023/02/24 12:54:55;;;;;;;;;;;9.50;76.50;;;;;;5000711;28;92121;-38
2023/02/24 12:57:29;;;;;;;;;;;9.50;76.40;;;;;;5000691;28;94238;-38
2023/02/24 12:59:55;;;;;;;;;;;9.50;76.50;;;;;;5000168;28;94822;-38
2023/02/24 13:02:39;;;;;;;;;;;9.50;76.70;;;;;;5000559;28;92137;-38
2023/02/24 13:05:07;;;;;;;;;;;9.50;76.50;;;;;;5003032;28;93606;-38
2023/02/24 13:07:39;;;;;;;;;;;9.50;76.80;;;;;;5000486;28;91423;-38
2023/02/24 13:10:13;;;;;;;;;;;9.50;76.60;;;;;;5000521;28;92882;-38
2023/02/24 13:12:57;;;;;;;;;;;9.50;76.70;;;;;;4999947;28;94309;-38
2023/02/24 13:15:24;;;;;;;;;;;9.50;76.70;;;;;;4999771;28;93130;-38
2023/02/24 13:17:51;;;;;;;;;;;9.50;76.70;;;;;;5000153;28;94005;-37
2023/02/24 13:20:30;;;;;;;;;;;9.50;76.80;;;;;;4999687;28;94505;-37
2023/02/24 13:22:57;;;;;;;;;;;9.50;76.80;;;;;;5000388;28;92170;-37
2023/02/24 13:25:31;;;;;;;;;;;9.50;76.80;;;;;;5000016;28;94046;-38
2023/02/24 13:28:01;;;;;;;;;;;9.50;76.80;;;;;;5002902;28;94969;-38
2023/02/24 13:30:43;;;;;;;;;;;9.60;76.90;;;;;;5000013;28;94000;-38
2023/02/24 13:33:17;;;;;;;;;;;9.60;76.80;;;;;;4999976;28;93636;-38
2023/02/24 13:35:43;;;;;;;;;;;9.50;77.00;;;;;;5000105;28;92727;-37
2023/02/24 13:38:21;;;;;;;;;;;9.60;76.90;;;;;;4999824;28;93921;-38
2023/02/24 13:40:47;;;;;;;;;;;9.60;76.80;;;;;;4998772;28;95248;-38
2023/02/24 13:43:26;;;;;;;;;;;9.60;76.80;;;;;;4999876;28;92062;-37
2023/02/24 13:45:57;;;;;;;;;;;9.60;76.80;;;;;;4999823;28;94035;-38
2023/02/24 13:48:34;;;;;;;;;;;9.60;76.80;;;;;;4999319;28;94520;-38
2023/02/24 13:51:14;;;;;;;;;;;9.70;77.00;;;;;;5002928;28;92171;-37
2023/02/24 13:53:58;;;;;;;;;;;9.70;76.80;;;;;;4998413;28;94708;-38
2023/02/24 13:56:35;;;;;;;;;;;9.70;76.80;;;;;;4999919;28;92143;-37
2023/02/24 13:59:06;;;;;;;;;;;9.70;76.80;;;;;;5000284;28;92946;-38
2023/02/24 14:01:43;;;;;;;;;;;9.70;76.90;;;;;;4999234;28;94404;-38
2023/02/24 14:04:14;;;;;;;;;;;9.70;77.00;;;;;;5000125;28;92028;-37
2023/02/24 14:06:44;;;;;;;;;;;9.70;77.00;;;;;;4998431;28;94901;-38
2023/02/24 14:09:13;;;;;;;;;;;9.70;77.00;;;;;;4999449;28;94913;-38
2023/02/24 14:11:39;;;;;;;;;;;9.70;77.00;;;;;;4999366;28;92250;-38
2023/02/24 14:14:04;;;;;;;;;;;9.70;77.00;;;;;;5001889;28;93670;-37
2023/02/24 14:16:32;;;;;;;;;;;9.70;77.00;;;;;;4999453;28;92167;-37
2023/02/24 14:19:00;;;;;;;;;;;9.70;77.00;;;;;;4999382;28;94088;-37
2023/02/24 14:21:27;;;;;;;;;;;9.70;77.00;;;;;;4998892;28;94672;-38
2023/02/24 14:23:55;;;;;;;;;;;9.70;77.10;;;;;;4999926;28;91420;-38
2023/02/24 14:26:21;;;;;;;;;;;9.70;77.10;;;;;;4998944;28;92758;-38
2023/02/24 14:28:52;;;;;;;;;;;9.80;77.10;;;;;;4998910;28;93052;-38
2023/02/24 14:31:20;;;;;;;;;;;9.70;77.20;;;;;;4998649;28;93445;-37
2023/02/24 14:33:46;;;;;;;;;;;9.80;77.20;;;;;;4999271;28;93297;-37
2023/02/24 14:36:21;;;;;;;;;;;9.70;77.20;;;;;;5001926;28;94501;-38
2023/02/24 14:38:58;;;;;;;;;;;9.80;77.30;;;;;;4999021;28;92259;-38
2023/02/24 14:41:24;;;;;;;;;;;9.80;77.30;;;;;;4998672;28;94544;-37
2023/02/24 14:43:50;;;;;;;;;;;9.80;77.30;;;;;;4999079;28;92288;-37
2023/02/24 14:46:16;;;;;;;;;;;9.80;77.40;;;;;;4999216;28;92419;-38
2023/02/24 14:48:42;;;;;;;;;;;9.80;77.30;;;;;;4999007;28;93590;-37
2023/02/24 14:51:10;;;;;;;;;;;9.80;77.40;;;;;;4999255;28;92549;-38
2023/02/24 14:53:47;;;;;;;;;;;9.80;77.40;;;;;;4998810;28;93783;-38
2023/02/24 14:56:13;;;;;;;;;;;9.80;77.40;;;;;;4997965;28;95528;-37
2023/02/24 14:58:44;;;;;;;;;;;9.80;77.40;;;;;;5002262;28;91971;-38
2023/02/24 15:01:22;;;;;;;;;;;9.80;77.40;;;;;;4998248;28;94365;-38
2023/02/24 15:03:54;;;;;;;;;;;9.80;77.40;;;;;;4999093;28;93286;-38
2023/02/24 15:06:21;;;;;;;;;;;9.80;77.40;;;;;;5001008;28;93531;-37
2023/02/24 15:08:48;;;;;;;;;;;9.80;77.40;;;;;;5001793;28;94720;-38
2023/02/24 15:11:16;;;;;;;;;;;9.80;77.40;;;;;;5002413;28;92213;-38